sensor_id;sensor_type;location;lat;lon;timestamp;pressure;altitude;pressure_sealevel;temperature;humidity
60725;BME280;59881;36.722;-4.462;2023-11-19T00:00:30;101818.75;;;16.68;93.38
60725;BME280;59881;36.722;-4.462;2023-11-19T00:02:56;101818.75;;;16.68;93.46
60725;BME280;59881;36.722;-4.462;2023-11-19T00:05:22;101496.22;;;14.64;93.49
60725;BME280;59881;36.722;-4.462;2023-11-19T00:07:47;101822.41;;;16.67;93.73
60725;BME280;59881;36.722;-4.462;2023-11-19T00:10:15;101819.94;;;16.64;93.82
60725;BME280;59881;36.722;-4.462;2023-11-19T00:12:45;101761.03;;;16.33;93.75
60725;BME280;59881;36.722;-4.462;2023-11-19T00:15:12;101814.63;;;16.64;93.64
60725;BME280;59881;36.722;-4.462;2023-11-19T00:17:39;101629.06;;;15.60;93.52
60725;BME280;59881;36.722;-4.462;2023-11-19T00:20:13;101706.13;;;15.97;93.39
60725;BME280;59881;36.722;-4.462;2023-11-19T00:22:40;101641.59;;;15.58;93.39
60725;BME280;59881;36.722;-4.462;2023-11-19T00:25:08;101719.91;;;16.02;93.04
60725;BME280;59881;36.722;-4.462;2023-11-19T00:27:34;101785.38;;;16.40;93.12
60725;BME280;59881;36.722;-4.462;2023-11-19T00:30:00;101604.31;;;15.23;92.82
60725;BME280;59881;36.722;-4.462;2023-11-19T00:32:26;101747.41;;;15.90;92.59
60725;BME280;59881;36.722;-4.462;2023-11-19T00:34:51;101715.97;;;15.71;92.70
60725;BME280;59881;36.722;-4.462;2023-11-19T00:37:18;101728.19;;;15.61;92.62
60725;BME280;59881;36.722;-4.462;2023-11-19T00:39:43;101541.13;;;14.14;92.37
60725;BME280;59881;36.722;-4.462;2023-11-19T00:42:10;101774.00;;;15.77;93.16
60725;BME280;59881;36.722;-4.462;2023-11-19T00:44:36;101771.00;;;15.69;92.78
60725;BME280;59881;36.722;-4.462;2023-11-19T00:47:02;101709.66;;;15.22;92.75
60725;BME280;59881;36.722;-4.462;2023-11-19T00:49:28;101726.97;;;15.28;93.36
60725;BME280;59881;36.722;-4.462;2023-11-19T00:51:54;101759.44;;;15.44;93.46
60725;BME280;59881;36.722;-4.462;2023-11-19T00:54:19;101754.47;;;15.40;93.59
60725;BME280;59881;36.722;-4.462;2023-11-19T00:56:45;101809.97;;;15.04;94.03
60725;BME280;59881;36.722;-4.462;2023-11-19T00:59:11;101687.91;;;14.92;94.16
60725;BME280;59881;36.722;-4.462;2023-11-19T01:01:37;101630.28;;;14.55;94.21
60725;BME280;59881;36.722;-4.462;2023-11-19T01:04:03;101752.88;;;15.24;94.47
60725;BME280;59881;36.722;-4.462;2023-11-19T01:06:30;101752.34;;;15.19;94.52
60725;BME280;59881;36.722;-4.462;2023-11-19T01:08:56;101706.47;;;14.92;94.78
60725;BME280;59881;36.722;-4.462;2023-11-19T01:11:23;101640.00;;;14.02;95.14
60725;BME280;59881;36.722;-4.462;2023-11-19T01:13:49;101741.31;;;15.13;95.45
60725;BME280;59881;36.722;-4.462;2023-11-19T01:16:15;101740.56;;;15.10;95.58
60725;BME280;59881;36.722;-4.462;2023-11-19T01:18:41;101218.88;;;11.92;95.42
60725;BME280;59881;36.722;-4.462;2023-11-19T01:21:07;101734.81;;;15.04;95.82
60725;BME280;59881;36.722;-4.462;2023-11-19T01:23:34;101348.44;;;12.59;95.26
60725;BME280;59881;36.722;-4.462;2023-11-19T01:25:59;101752.31;;;14.94;95.90
60725;BME280;59881;36.722;-4.462;2023-11-19T01:28:25;101746.41;;;14.90;95.81
60725;BME280;59881;36.722;-4.462;2023-11-19T01:30:51;101747.44;;;14.87;96.26
60725;BME280;59881;36.722;-4.462;2023-11-19T01:33:17;101299.19;;;12.17;96.16
60725;BME280;59881;36.722;-4.462;2023-11-19T01:35:43;101539.38;;;13.48;96.37
60725;BME280;59881;36.722;-4.462;2023-11-19T01:38:08;101745.44;;;14.51;96.86
60725;BME280;59881;36.722;-4.462;2023-11-19T01:40:34;101657.91;;;14.38;96.82
60725;BME280;59881;36.722;-4.462;2023-11-19T01:43:02;101783.19;;;14.82;96.76
60725;BME280;59881;36.722;-4.462;2023-11-19T01:45:29;101489.25;;;13.32;96.90
60725;BME280;59881;36.722;-4.462;2023-11-19T01:48:00;101663.28;;;14.37;97.45
60725;BME280;59881;36.722;-4.462;2023-11-19T01:50:30;101736.50;;;14.79;97.66
60725;BME280;59881;36.722;-4.462;2023-11-19T01:52:56;101546.94;;;13.54;97.32
60725;BME280;59881;36.722;-4.462;2023-11-19T01:55:26;101282.50;;;12.02;97.40
60725;BME280;59881;36.722;-4.462;2023-11-19T01:57:54;101733.59;;;14.69;97.82
60725;BME280;59881;36.722;-4.462;2023-11-19T02:00:23;101720.56;;;14.66;97.94
60725;BME280;59881;36.722;-4.462;2023-11-19T02:02:50;101701.41;;;14.48;98.30
60725;BME280;59881;36.722;-4.462;2023-11-19T02:05:17;101208.38;;;11.49;97.84
60725;BME280;59881;36.722;-4.462;2023-11-19T02:07:43;101573.38;;;13.27;98.24
60725;BME280;59881;36.722;-4.462;2023-11-19T02:10:09;101319.78;;;11.97;98.09
60725;BME280;59881;36.722;-4.462;2023-11-19T02:12:42;101693.28;;;14.24;98.41
60725;BME280;59881;36.722;-4.462;2023-11-19T02:15:09;101716.69;;;14.18;98.67
60725;BME280;59881;36.722;-4.462;2023-11-19T02:17:35;101721.34;;;14.41;98.78
60725;BME280;59881;36.722;-4.462;2023-11-19T02:20:03;101770.19;;;14.37;98.97
60725;BME280;59881;36.722;-4.462;2023-11-19T02:22:34;101660.53;;;13.98;98.97
60725;BME280;59881;36.722;-4.462;2023-11-19T02:25:04;101731.59;;;14.33;99.26
60725;BME280;59881;36.722;-4.462;2023-11-19T02:27:47;101730.84;;;14.31;99.50
60725;BME280;59881;36.722;-4.462;2023-11-19T02:30:15;101736.44;;;14.26;99.62
60725;BME280;59881;36.722;-4.462;2023-11-19T02:32:41;101511.66;;;12.84;99.35
60725;BME280;59881;36.722;-4.462;2023-11-19T02:35:07;101368.81;;;12.01;99.47
60725;BME280;59881;36.722;-4.462;2023-11-19T02:37:37;101373.81;;;12.06;99.56
60725;BME280;59881;36.722;-4.462;2023-11-19T02:40:04;101587.38;;;13.29;100.00
60725;BME280;59881;36.722;-4.462;2023-11-19T02:42:31;101715.19;;;14.14;100.00
60725;BME280;59881;36.722;-4.462;2023-11-19T02:44:57;101755.91;;;14.13;100.00
60725;BME280;59881;36.722;-4.462;2023-11-19T02:47:22;101705.72;;;14.10;100.00
60725;BME280;59881;36.722;-4.462;2023-11-19T02:49:49;101645.59;;;13.70;100.00
60725;BME280;59881;36.722;-4.462;2023-11-19T02:52:15;101693.09;;;14.00;100.00
60725;BME280;59881;36.722;-4.462;2023-11-19T02:54:41;101255.75;;;11.36;100.00
60725;BME280;59881;36.722;-4.462;2023-11-19T02:57:07;101695.72;;;14.00;100.00
60725;BME280;59881;36.722;-4.462;2023-11-19T02:59:38;101693.09;;;14.00;100.00
60725;BME280;59881;36.722;-4.462;2023-11-19T03:02:08;101688.94;;;13.96;100.00
60725;BME280;59881;36.722;-4.462;2023-11-19T03:04:40;101685.53;;;13.94;100.00
60725;BME280;59881;36.722;-4.462;2023-11-19T03:07:06;101681.28;;;13.92;100.00
60725;BME280;59881;36.722;-4.462;2023-11-19T03:09:34;101398.63;;;12.18;100.00
60725;BME280;59881;36.722;-4.462;2023-11-19T03:12:01;101683.19;;;13.90;100.00
60725;BME280;59881;36.722;-4.462;2023-11-19T03:14:27;101677.97;;;13.88;100.00
60725;BME280;59881;36.722;-4.462;2023-11-19T03:16:53;101660.34;;;13.74;100.00
60725;BME280;59881;36.722;-4.462;2023-11-19T03:19:19;101678.09;;;13.86;100.00
60725;BME280;59881;36.722;-4.462;2023-11-19T03:21:44;101675.44;;;13.86;100.00
60725;BME280;59881;36.722;-4.462;2023-11-19T03:24:13;101758.31;;;13.74;100.00
60725;BME280;59881;36.722;-4.462;2023-11-19T03:26:38;101673.72;;;13.85;100.00
60725;BME280;59881;36.722;-4.462;2023-11-19T03:29:04;101631.91;;;13.63;100.00
60725;BME280;59881;36.722;-4.462;2023-11-19T03:31:30;101667.69;;;13.83;100.00
60725;BME280;59881;36.722;-4.462;2023-11-19T03:33:55;101648.44;;;13.67;100.00
60725;BME280;59881;36.722;-4.462;2023-11-19T03:36:21;101462.38;;;12.55;100.00
60725;BME280;59881;36.722;-4.462;2023-11-19T03:38:47;101661.63;;;13.81;100.00
60725;BME280;59881;36.722;-4.462;2023-11-19T03:41:14;101066.00;;;10.19;100.00
60725;BME280;59881;36.722;-4.462;2023-11-19T03:43:40;101654.84;;;13.77;100.00
60725;BME280;59881;36.722;-4.462;2023-11-19T03:46:19;101498.72;;;12.80;100.00
60725;BME280;59881;36.722;-4.462;2023-11-19T03:48:48;101658.75;;;13.72;100.00
60725;BME280;59881;36.722;-4.462;2023-11-19T03:51:13;101619.00;;;13.44;100.00
60725;BME280;59881;36.722;-4.462;2023-11-19T03:53:46;101651.09;;;13.67;100.00
60725;BME280;59881;36.722;-4.462;2023-11-19T03:56:12;101643.25;;;13.65;100.00
60725;BME280;59881;36.722;-4.462;2023-11-19T03:58:38;101700.66;;;13.65;100.00
60725;BME280;59881;36.722;-4.462;2023-11-19T04:01:05;101618.16;;;13.44;100.00
60725;BME280;59881;36.722;-4.462;2023-11-19T04:03:30;101085.25;;;10.19;100.00
60725;BME280;59881;36.722;-4.462;2023-11-19T04:05:56;101619.38;;;13.38;100.00
60725;BME280;59881;36.722;-4.462;2023-11-19T04:08:22;101299.75;;;11.50;100.00
60725;BME280;59881;36.722;-4.462;2023-11-19T04:10:48;101602.22;;;13.02;100.00
60725;BME280;59881;36.722;-4.462;2023-11-19T04:13:14;101634.59;;;13.49;100.00
60725;BME280;59881;36.722;-4.462;2023-11-19T04:15:39;101628.44;;;13.49;100.00
60725;BME280;59881;36.722;-4.462;2023-11-19T04:18:05;101607.28;;;13.34;100.00
60725;BME280;59881;36.722;-4.462;2023-11-19T04:20:30;101535.06;;;12.91;100.00
60725;BME280;59881;36.722;-4.462;2023-11-19T04:22:57;101629.59;;;13.44;100.00
60725;BME280;59881;36.722;-4.462;2023-11-19T04:25:23;101598.94;;;13.26;100.00
60725;BME280;59881;36.722;-4.462;2023-11-19T04:27:51;101301.00;;;11.45;100.00
60725;BME280;59881;36.722;-4.462;2023-11-19T04:30:17;101631.28;;;13.45;100.00
60725;BME280;59881;36.722;-4.462;2023-11-19T04:32:43;101606.53;;;13.18;100.00
60725;BME280;59881;36.722;-4.462;2023-11-19T04:35:09;101327.88;;;11.51;100.00
60725;BME280;59881;36.722;-4.462;2023-11-19T04:37:36;101633.09;;;13.45;100.00
60725;BME280;59881;36.722;-4.462;2023-11-19T04:40:02;101626.94;;;13.44;100.00
60725;BME280;59881;36.722;-4.462;2023-11-19T04:42:28;101623.53;;;13.42;100.00
60725;BME280;59881;36.722;-4.462;2023-11-19T04:44:55;101581.13;;;13.01;100.00
60725;BME280;59881;36.722;-4.462;2023-11-19T04:47:20;101598.59;;;13.18;100.00
60725;BME280;59881;36.722;-4.462;2023-11-19T04:49:46;101624.88;;;13.35;100.00
60725;BME280;59881;36.722;-4.462;2023-11-19T04:52:12;101626.66;;;13.35;100.00
60725;BME280;59881;36.722;-4.462;2023-11-19T04:54:41;101537.50;;;12.79;100.00
60725;BME280;59881;36.722;-4.462;2023-11-19T04:57:08;101627.81;;;13.31;100.00
60725;BME280;59881;36.722;-4.462;2023-11-19T04:59:36;101626.03;;;13.31;100.00
60725;BME280;59881;36.722;-4.462;2023-11-19T05:02:02;101623.38;;;13.31;100.00
60725;BME280;59881;36.722;-4.462;2023-11-19T05:04:29;101623.25;;;13.33;100.00
60725;BME280;59881;36.722;-4.462;2023-11-19T05:06:55;101324.00;;;11.43;100.00
60725;BME280;59881;36.722;-4.462;2023-11-19T05:09:20;101617.13;;;13.32;100.00
60725;BME280;59881;36.722;-4.462;2023-11-19T05:11:46;101612.59;;;13.34;100.00
60725;BME280;59881;36.722;-4.462;2023-11-19T05:14:11;101678.66;;;13.36;100.00
60725;BME280;59881;36.722;-4.462;2023-11-19T05:16:39;101348.00;;;11.38;100.00
60725;BME280;59881;36.722;-4.462;2023-11-19T05:19:05;101281.59;;;11.31;100.00
60725;BME280;59881;36.722;-4.462;2023-11-19T05:21:30;101617.97;;;13.33;100.00
60725;BME280;59881;36.722;-4.462;2023-11-19T05:23:56;101038.91;;;9.86;100.00
60725;BME280;59881;36.722;-4.462;2023-11-19T05:26:23;101561.78;;;13.00;100.00
60725;BME280;59881;36.722;-4.462;2023-11-19T05:28:49;101602.66;;;13.38;100.00
60725;BME280;59881;36.722;-4.462;2023-11-19T05:31:16;101007.47;;;9.69;100.00
60725;BME280;59881;36.722;-4.462;2023-11-19T05:33:43;101041.19;;;9.92;100.00
60725;BME280;59881;36.722;-4.462;2023-11-19T05:36:10;101590.66;;;13.32;100.00
60725;BME280;59881;36.722;-4.462;2023-11-19T05:38:36;101680.91;;;13.28;100.00
60725;BME280;59881;36.722;-4.462;2023-11-19T05:41:02;101597.16;;;13.41;100.00
60725;BME280;59881;36.722;-4.462;2023-11-19T05:43:28;101604.25;;;13.40;100.00
60725;BME280;59881;36.722;-4.462;2023-11-19T05:45:53;101564.50;;;13.13;100.00
60725;BME280;59881;36.722;-4.462;2023-11-19T05:48:19;101581.59;;;13.22;100.00
60725;BME280;59881;36.722;-4.462;2023-11-19T05:50:44;101420.31;;;12.23;100.00
60725;BME280;59881;36.722;-4.462;2023-11-19T05:53:10;101604.84;;;13.31;100.00
60725;BME280;59881;36.722;-4.462;2023-11-19T05:55:39;101604.25;;;13.26;100.00
60725;BME280;59881;36.722;-4.462;2023-11-19T05:58:25;101546.78;;;12.87;100.00
60725;BME280;59881;36.722;-4.462;2023-11-19T06:00:52;101591.81;;;13.14;100.00
60725;BME280;59881;36.722;-4.462;2023-11-19T06:03:18;101599.06;;;13.10;100.00
60725;BME280;59881;36.722;-4.462;2023-11-19T06:05:47;101040.06;;;9.66;100.00
60725;BME280;59881;36.722;-4.462;2023-11-19T06:08:13;101230.63;;;10.86;100.00
60725;BME280;59881;36.722;-4.462;2023-11-19T06:10:39;101340.47;;;11.46;100.00
60725;BME280;59881;36.722;-4.462;2023-11-19T06:13:05;101441.91;;;12.01;100.00
60725;BME280;59881;36.722;-4.462;2023-11-19T06:15:32;101553.56;;;12.33;100.00
60725;BME280;59881;36.722;-4.462;2023-11-19T06:17:58;101575.41;;;12.80;100.00
60725;BME280;59881;36.722;-4.462;2023-11-19T06:20:32;101556.72;;;12.69;100.00
60725;BME280;59881;36.722;-4.462;2023-11-19T06:22:58;101587.22;;;12.89;100.00
60725;BME280;59881;36.722;-4.462;2023-11-19T06:25:23;101556.78;;;12.67;100.00
60725;BME280;59881;36.722;-4.462;2023-11-19T06:27:49;101563.69;;;12.70;100.00
60725;BME280;59881;36.722;-4.462;2023-11-19T06:30:15;101565.19;;;12.74;100.00
60725;BME280;59881;36.722;-4.462;2023-11-19T06:32:41;101593.97;;;12.64;100.00
60725;BME280;59881;36.722;-4.462;2023-11-19T06:35:07;101559.91;;;12.74;100.00
60725;BME280;59881;36.722;-4.462;2023-11-19T06:37:33;101580.19;;;12.88;100.00
60725;BME280;59881;36.722;-4.462;2023-11-19T06:39:59;101596.75;;;12.91;100.00
60725;BME280;59881;36.722;-4.462;2023-11-19T06:42:25;101500.59;;;12.35;100.00
60725;BME280;59881;36.722;-4.462;2023-11-19T06:44:50;101590.69;;;12.89;100.00
60725;BME280;59881;36.722;-4.462;2023-11-19T06:47:17;101585.50;;;12.88;100.00
60725;BME280;59881;36.722;-4.462;2023-11-19T06:49:45;101592.50;;;12.89;100.00
60725;BME280;59881;36.722;-4.462;2023-11-19T06:52:11;101595.13;;;12.89;100.00
60725;BME280;59881;36.722;-4.462;2023-11-19T06:54:39;101256.16;;;10.86;100.00
60725;BME280;59881;36.722;-4.462;2023-11-19T06:57:04;101468.31;;;12.15;100.00
60725;BME280;59881;36.722;-4.462;2023-11-19T06:59:30;101585.50;;;12.88;100.00
60725;BME280;59881;36.722;-4.462;2023-11-19T07:01:56;101216.81;;;10.67;100.00
60725;BME280;59881;36.722;-4.462;2023-11-19T07:04:22;101659.84;;;12.97;100.00
60725;BME280;59881;36.722;-4.462;2023-11-19T07:06:47;101578.22;;;12.91;100.00
60725;BME280;59881;36.722;-4.462;2023-11-19T07:09:13;101635.47;;;13.07;100.00
60725;BME280;59881;36.722;-4.462;2023-11-19T07:11:40;101479.66;;;12.46;100.00
60725;BME280;59881;36.722;-4.462;2023-11-19T07:14:09;101592.69;;;13.83;100.00
60725;BME280;59881;36.722;-4.462;2023-11-19T07:16:35;101355.91;;;13.85;100.00
60725;BME280;59881;36.722;-4.462;2023-11-19T07:19:06;101590.06;;;16.78;100.00
60725;BME280;59881;36.722;-4.462;2023-11-19T07:21:32;101307.84;;;16.04;100.00
60725;BME280;59881;36.722;-4.462;2023-11-19T07:24:01;101574.16;;;19.12;100.00
60725;BME280;59881;36.722;-4.462;2023-11-19T07:26:27;101569.66;;;20.02;92.42
60725;BME280;59881;36.722;-4.462;2023-11-19T07:28:53;101577.97;;;21.21;81.54
60725;BME280;59881;36.722;-4.462;2023-11-19T07:31:18;101540.63;;;22.09;71.60
60725;BME280;59881;36.722;-4.462;2023-11-19T07:33:47;101538.41;;;22.91;62.03
60725;BME280;59881;36.722;-4.462;2023-11-19T07:36:13;101556.44;;;23.82;56.87
60725;BME280;59881;36.722;-4.462;2023-11-19T07:38:39;101549.44;;;24.62;52.90
60725;BME280;59881;36.722;-4.462;2023-11-19T07:41:07;101474.78;;;25.02;49.43
60725;BME280;59881;36.722;-4.462;2023-11-19T07:43:38;101306.06;;;24.77;46.53
60725;BME280;59881;36.722;-4.462;2023-11-19T07:46:04;101423.22;;;26.04;43.98
60725;BME280;59881;36.722;-4.462;2023-11-19T07:48:30;101295.41;;;25.81;42.28
60725;BME280;59881;36.722;-4.462;2023-11-19T07:50:55;101268.22;;;26.13;40.39
60725;BME280;59881;36.722;-4.462;2023-11-19T07:53:21;101557.75;;;28.33;39.13
60725;BME280;59881;36.722;-4.462;2023-11-19T07:55:47;101546.97;;;28.75;38.00
60725;BME280;59881;36.722;-4.462;2023-11-19T07:58:12;101328.78;;;27.96;36.91
60725;BME280;59881;36.722;-4.462;2023-11-19T08:00:38;101554.16;;;29.84;35.36
60725;BME280;59881;36.722;-4.462;2023-11-19T08:03:04;101387.91;;;29.22;34.29
60725;BME280;59881;36.722;-4.462;2023-11-19T08:05:33;101380.38;;;29.77;33.01
60725;BME280;59881;36.722;-4.462;2023-11-19T08:07:58;101557.97;;;31.33;32.18
60725;BME280;59881;36.722;-4.462;2023-11-19T08:10:24;101362.44;;;30.66;31.48
60725;BME280;59881;36.722;-4.462;2023-11-19T08:12:49;101577.94;;;32.52;30.68
60725;BME280;59881;36.722;-4.462;2023-11-19T08:15:15;101291.47;;;31.25;29.70
60725;BME280;59881;36.722;-4.462;2023-11-19T08:17:41;101579.22;;;33.35;28.75
60725;BME280;59881;36.722;-4.462;2023-11-19T08:20:09;101380.44;;;32.60;28.18
60725;BME280;59881;36.722;-4.462;2023-11-19T08:22:39;101574.19;;;34.16;27.50
60725;BME280;59881;36.722;-4.462;2023-11-19T08:25:05;101593.75;;;34.72;26.74
60725;BME280;59881;36.722;-4.462;2023-11-19T08:27:31;101397.28;;;34.05;25.96
60725;BME280;59881;36.722;-4.462;2023-11-19T08:29:57;101581.78;;;35.76;25.65
60725;BME280;59881;36.722;-4.462;2023-11-19T08:32:23;101552.75;;;35.97;24.98
60725;BME280;59881;36.722;-4.462;2023-11-19T08:34:49;101582.56;;;36.66;24.21
60725;BME280;59881;36.722;-4.462;2023-11-19T08:37:14;101568.91;;;36.94;23.38
60725;BME280;59881;36.722;-4.462;2023-11-19T08:39:40;101585.34;;;37.43;22.95
60725;BME280;59881;36.722;-4.462;2023-11-19T08:42:07;101572.53;;;37.54;22.37
60725;BME280;59881;36.722;-4.462;2023-11-19T08:44:32;101602.28;;;38.26;22.08
60725;BME280;59881;36.722;-4.462;2023-11-19T08:46:58;101609.06;;;38.61;21.32
60725;BME280;59881;36.722;-4.462;2023-11-19T08:49:23;101495.53;;;38.28;20.90
60725;BME280;59881;36.722;-4.462;2023-11-19T08:51:49;101596.63;;;39.22;20.62
60725;BME280;59881;36.722;-4.462;2023-11-19T08:54:14;101579.59;;;39.50;19.92
60725;BME280;59881;36.722;-4.462;2023-11-19T08:56:40;101607.97;;;40.02;20.01
60725;BME280;59881;36.722;-4.462;2023-11-19T08:59:05;101584.78;;;40.29;19.57
60725;BME280;59881;36.722;-4.462;2023-11-19T09:01:31;101608.88;;;40.83;19.44
60725;BME280;59881;36.722;-4.462;2023-11-19T09:03:56;101588.28;;;41.05;18.88
60725;BME280;59881;36.722;-4.462;2023-11-19T09:06:22;101524.84;;;40.94;18.75
60725;BME280;59881;36.722;-4.462;2023-11-19T09:08:48;101620.22;;;41.71;18.76
60725;BME280;59881;36.722;-4.462;2023-11-19T09:11:14;101610.97;;;42.15;18.00
60725;BME280;59881;36.722;-4.462;2023-11-19T09:13:39;101597.69;;;42.41;17.85
60725;BME280;59881;36.722;-4.462;2023-11-19T09:16:05;101615.34;;;42.69;17.34
60725;BME280;59881;36.722;-4.462;2023-11-19T09:18:30;101617.03;;;42.89;17.55
60725;BME280;59881;36.722;-4.462;2023-11-19T09:20:57;101568.25;;;42.88;17.61
60725;BME280;59881;36.722;-4.462;2023-11-19T09:23:23;101532.91;;;42.99;17.28
60725;BME280;59881;36.722;-4.462;2023-11-19T09:25:50;101615.72;;;43.57;17.32
60725;BME280;59881;36.722;-4.462;2023-11-19T09:28:16;101589.81;;;43.81;16.81
60725;BME280;59881;36.722;-4.462;2023-11-19T09:30:41;101383.00;;;42.82;16.77
60725;BME280;59881;36.722;-4.462;2023-11-19T09:33:07;101613.38;;;44.44;16.60
60725;BME280;59881;36.722;-4.462;2023-11-19T09:35:32;101584.63;;;44.62;16.30
60725;BME280;59881;36.722;-4.462;2023-11-19T09:37:58;101306.69;;;43.17;16.19
60725;BME280;59881;36.722;-4.462;2023-11-19T09:40:24;101601.44;;;45.30;15.54
60725;BME280;59881;36.722;-4.462;2023-11-19T09:42:50;101532.28;;;45.15;15.80
60725;BME280;59881;36.722;-4.462;2023-11-19T09:45:17;101604.28;;;45.84;15.34
60725;BME280;59881;36.722;-4.462;2023-11-19T09:47:46;101598.97;;;46.05;15.04
60725;BME280;59881;36.722;-4.462;2023-11-19T09:50:17;101597.28;;;46.35;14.74
60725;BME280;59881;36.722;-4.462;2023-11-19T09:52:46;101572.91;;;46.50;14.34
60725;BME280;59881;36.722;-4.462;2023-11-19T09:55:12;101597.19;;;46.58;14.69
60725;BME280;59881;36.722;-4.462;2023-11-19T09:57:41;101593.59;;;46.57;14.41
60725;BME280;59881;36.722;-4.462;2023-11-19T10:00:10;101567.56;;;46.79;14.02
60725;BME280;59881;36.722;-4.462;2023-11-19T10:02:36;101588.88;;;47.01;14.28
60725;BME280;59881;36.722;-4.462;2023-11-19T10:05:07;101592.31;;;47.33;13.81
60725;BME280;59881;36.722;-4.462;2023-11-19T10:07:33;101583.13;;;47.50;13.67
60725;BME280;59881;36.722;-4.462;2023-11-19T10:10:00;101516.41;;;46.84;14.02
60725;BME280;59881;36.722;-4.462;2023-11-19T10:12:27;101610.84;;;47.46;13.43
60725;BME280;59881;36.722;-4.462;2023-11-19T10:14:56;101572.84;;;47.80;13.11
60725;BME280;59881;36.722;-4.462;2023-11-19T10:17:28;101562.94;;;48.81;12.29
60725;BME280;59881;36.722;-4.462;2023-11-19T10:19:54;101575.69;;;49.57;12.00
60725;BME280;59881;36.722;-4.462;2023-11-19T10:22:23;101507.81;;;49.48;11.69
60725;BME280;59881;36.722;-4.462;2023-11-19T10:24:49;101572.38;;;49.88;11.32
60725;BME280;59881;36.722;-4.462;2023-11-19T10:27:15;101589.69;;;49.57;11.43
60725;BME280;59881;36.722;-4.462;2023-11-19T10:29:45;101532.38;;;48.76;12.45
60725;BME280;59881;36.722;-4.462;2023-11-19T10:32:12;101567.16;;;48.66;12.41
60725;BME280;59881;36.722;-4.462;2023-11-19T10:34:38;101445.38;;;47.55;12.63
60725;BME280;59881;36.722;-4.462;2023-11-19T10:37:05;101556.63;;;48.42;12.53
60725;BME280;59881;36.722;-4.462;2023-11-19T10:39:53;101563.69;;;47.71;12.74
60725;BME280;59881;36.722;-4.462;2023-11-19T10:42:22;101479.28;;;41.26;16.05
60725;BME280;59881;36.722;-4.462;2023-11-19T10:44:47;101123.97;;;32.55;21.44
60725;BME280;59881;36.722;-4.462;2023-11-19T10:47:18;101579.09;;;30.79;27.13
60725;BME280;59881;36.722;-4.462;2023-11-19T10:49:45;101592.59;;;28.08;30.19
60725;BME280;59881;36.722;-4.462;2023-11-19T10:52:18;101596.81;;;26.27;32.74
60725;BME280;59881;36.722;-4.462;2023-11-19T10:54:49;101592.31;;;25.27;34.65
60725;BME280;59881;36.722;-4.462;2023-11-19T10:57:20;101594.22;;;24.71;35.60
60725;BME280;59881;36.722;-4.462;2023-11-19T10:59:47;101577.94;;;24.15;36.45
60725;BME280;59881;36.722;-4.462;2023-11-19T11:02:18;101585.88;;;23.84;37.35
60725;BME280;59881;36.722;-4.462;2023-11-19T11:04:47;101587.00;;;23.57;37.80
60725;BME280;59881;36.722;-4.462;2023-11-19T11:07:15;101581.16;;;23.10;38.00
60725;BME280;59881;36.722;-4.462;2023-11-19T11:09:43;101620.38;;;22.69;38.43
60725;BME280;59881;36.722;-4.462;2023-11-19T11:12:12;99730.59;;;11.34;39.27
60725;BME280;59881;36.722;-4.462;2023-11-19T11:14:38;101571.28;;;22.50;39.68
60725;BME280;59881;36.722;-4.462;2023-11-19T11:17:06;101563.03;;;22.44;39.47
60725;BME280;59881;36.722;-4.462;2023-11-19T11:19:34;101544.88;;;22.20;39.55
60725;BME280;59881;36.722;-4.462;2023-11-19T11:22:00;101454.53;;;21.50;39.37
60725;BME280;59881;36.722;-4.462;2023-11-19T11:30:17;101272.28;;;19.89;39.58
60725;BME280;59881;36.722;-4.462;2023-11-19T11:32:58;101551.88;;;21.51;39.95
60725;BME280;59881;36.722;-4.462;2023-11-19T11:35:30;101549.66;;;21.36;39.80
60725;BME280;59881;36.722;-4.462;2023-11-19T11:38:06;101516.97;;;21.15;40.06
60725;BME280;59881;36.722;-4.462;2023-11-19T11:40:32;101279.91;;;19.46;40.72
60725;BME280;59881;36.722;-4.462;2023-11-19T11:42:58;101379.50;;;19.95;40.90
60725;BME280;59881;36.722;-4.462;2023-11-19T11:45:38;101530.59;;;21.03;40.90
60725;BME280;59881;36.722;-4.462;2023-11-19T11:48:11;101540.69;;;21.09;40.84
60725;BME280;59881;36.722;-4.462;2023-11-19T11:50:49;101531.06;;;21.17;41.00
60725;BME280;59881;36.722;-4.462;2023-11-19T11:53:21;101408.53;;;20.45;40.88
60725;BME280;59881;36.722;-4.462;2023-11-19T11:58:18;101515.25;;;20.96;41.14
60725;BME280;59881;36.722;-4.462;2023-11-19T12:00:46;101504.19;;;20.81;41.13
60725;BME280;59881;36.722;-4.462;2023-11-19T12:03:12;101509.34;;;20.92;41.15
60725;BME280;59881;36.722;-4.462;2023-11-19T12:05:42;101506.38;;;20.95;41.46
60725;BME280;59881;36.722;-4.462;2023-11-19T12:08:10;101515.69;;;20.91;41.38
60725;BME280;59881;36.722;-4.462;2023-11-19T12:10:49;101501.13;;;20.76;41.86
60725;BME280;59881;36.722;-4.462;2023-11-19T12:13:15;101502.56;;;20.70;41.86
60725;BME280;59881;36.722;-4.462;2023-11-19T12:18:32;101505.34;;;20.78;42.41
60725;BME280;59881;36.722;-4.462;2023-11-19T12:20:58;101174.47;;;18.84;42.31
60725;BME280;59881;36.722;-4.462;2023-11-19T12:23:30;101503.22;;;20.82;42.42
60725;BME280;59881;36.722;-4.462;2023-11-19T12:25:56;101263.59;;;19.39;42.79
60725;BME280;59881;36.722;-4.462;2023-11-19T12:28:22;101478.09;;;20.55;42.40
60725;BME280;59881;36.722;-4.462;2023-11-19T12:30:49;101428.34;;;20.25;43.07
60725;BME280;59881;36.722;-4.462;2023-11-19T12:33:16;101470.06;;;20.55;43.43
60725;BME280;59881;36.722;-4.462;2023-11-19T12:35:43;101489.63;;;20.56;43.33
60725;BME280;59881;36.722;-4.462;2023-11-19T12:38:22;101478.13;;;20.45;44.10
60725;BME280;59881;36.722;-4.462;2023-11-19T12:41:09;101477.16;;;20.46;43.99
60725;BME280;59881;36.722;-4.462;2023-11-19T12:43:39;101479.69;;;20.48;43.76
60725;BME280;59881;36.722;-4.462;2023-11-19T12:46:21;101477.44;;;20.43;43.78